Avalon, Missouri
Current Conditions -  °F | °C
As of 5:55 PM on Monday 22 Dec 2014 (Local Time) from KGPH Reporting Station
Overcast Overcast  
Wind Chill: 40°   Ceiling: 3100
Heat Index: 45°   Visibility: 10mi
Dew Point: 41°   Wind: 9mph
Humidity: 87%   Direction: 270°W
Pressure: 29.47"   Gusts: 18mph
Location:  39.66°N, 93.44°W
Report Text: KGPH 222355Z AUTO 27008G16KT 10SM SCT023 OVC031 07/05 A2947 RMK AO2
Loading
Personal Weather Stations






























Interactive Weather Map New forecast layout! Learn more

10-Day Weather Forecast

Advertisements
Track Severe Weather on mobile